createdAt,value
2023-04-16T00:01:36.254Z,4.24
2023-04-16T00:06:38.566Z,4.15
2023-04-16T00:11:41.493Z,4.07
2023-04-16T00:16:44.443Z,4.15
2023-04-16T00:21:47.710Z,4.23
2023-04-16T00:26:50.577Z,4.17
2023-04-16T00:31:52.841Z,4.27
2023-04-16T00:36:55.702Z,4.08
2023-04-16T00:41:58.447Z,4.27
2023-04-16T00:47:02.134Z,4.02
2023-04-16T00:52:04.977Z,4.14
2023-04-16T00:57:07.954Z,3.90
2023-04-16T01:02:11.575Z,4.07
2023-04-16T01:07:13.981Z,3.88
2023-04-16T01:12:16.327Z,3.98
2023-04-16T01:17:19.111Z,3.97
2023-04-16T01:22:22.972Z,4.18
2023-04-16T01:27:25.619Z,4.23
2023-04-16T01:32:31.763Z,4.14
2023-04-16T01:37:34.673Z,4.15
2023-04-16T01:42:38.243Z,4.26
2023-04-16T01:47:41.170Z,4.27
2023-04-16T01:52:44.887Z,3.90
2023-04-16T01:57:48.143Z,4.24
2023-04-16T02:02:51.464Z,4.25
2023-04-16T02:08:02.173Z,4.10
2023-04-16T02:13:05.914Z,4.22
2023-04-16T02:18:08.418Z,4.00
2023-04-16T02:23:15.389Z,4.24
2023-04-16T02:28:19.128Z,4.16
2023-04-16T02:33:22.118Z,4.23
2023-04-16T02:38:33.869Z,4.30
2023-04-16T02:43:36.556Z,4.20
2023-04-16T02:48:40.509Z,4.35
2023-04-16T02:53:46.853Z,4.33
2023-04-16T02:58:49.780Z,4.63
2023-04-16T03:03:53.107Z,4.59
2023-04-16T03:08:56.037Z,4.77
2023-04-16T03:13:59.544Z,4.82
2023-04-16T03:19:03.069Z,5.09
2023-04-16T03:24:06.509Z,5.27
2023-04-16T03:29:09.099Z,5.28
2023-04-16T03:34:12.365Z,5.18
2023-04-16T03:39:16.490Z,5.38
2023-04-16T03:44:19.845Z,5.23
2023-04-16T03:49:22.753Z,5.48
2023-04-16T03:54:27.818Z,5.61
2023-04-16T03:59:42.121Z,6.40
2023-04-16T04:04:44.681Z,8.34
2023-04-16T04:09:48.096Z,10.20
2023-04-16T04:14:51.953Z,11.72
2023-04-16T04:20:01.386Z,12.76
2023-04-16T04:25:10.455Z,13.49
2023-04-16T04:30:12.900Z,14.29
2023-04-16T04:35:17.031Z,15.29
2023-04-16T04:40:20.135Z,16.00
2023-04-16T04:45:26.275Z,16.60
2023-04-16T04:50:29.961Z,17.09
2023-04-16T04:55:33.555Z,17.73
2023-04-16T05:00:37.362Z,18.29
2023-04-16T05:05:41.636Z,18.88
2023-04-16T05:10:44.000Z,19.39
2023-04-16T05:15:47.174Z,19.58
2023-04-16T05:20:50.068Z,19.55
2023-04-16T05:25:52.394Z,19.88
2023-04-16T05:30:55.606Z,20.16
2023-04-16T05:35:58.983Z,20.46
2023-04-16T05:41:03.050Z,20.47
2023-04-16T05:46:05.626Z,20.44
2023-04-16T05:51:07.979Z,20.56
2023-04-16T05:56:10.569Z,21.03
2023-04-16T06:01:12.945Z,20.72
2023-04-16T06:06:15.341Z,20.77
2023-04-16T06:11:17.700Z,20.69
2023-04-16T06:16:21.147Z,20.67
2023-04-16T06:21:24.081Z,20.98
2023-04-16T06:26:27.493Z,21.37
2023-04-16T06:31:30.642Z,21.22
2023-04-16T06:36:35.274Z,21.87
2023-04-16T06:41:38.545Z,21.48
2023-04-16T06:46:41.384Z,21.09
2023-04-16T06:51:44.378Z,21.13
2023-04-16T06:56:46.715Z,21.32
2023-04-16T07:01:49.645Z,21.11
2023-04-16T07:06:52.566Z,20.62
2023-04-16T07:11:55.140Z,20.40
2023-04-16T07:16:58.870Z,20.32
2023-04-16T07:22:01.964Z,19.91
2023-04-16T07:27:05.586Z,19.51
2023-04-16T07:32:08.825Z,18.83
2023-04-16T07:37:12.001Z,18.55
2023-04-16T07:42:15.710Z,18.03
2023-04-16T07:47:18.026Z,17.46
2023-04-16T07:52:21.485Z,16.78
2023-04-16T07:57:23.905Z,16.61
2023-04-16T08:02:26.762Z,16.26
2023-04-16T08:07:29.644Z,16.26
2023-04-16T08:12:32.905Z,15.86
2023-04-16T08:17:35.225Z,15.17
2023-04-16T08:22:38.838Z,15.60
2023-04-16T08:27:42.220Z,15.25
2023-04-16T08:32:45.990Z,15.34
2023-04-16T08:37:50.264Z,15.12
2023-04-16T08:42:56.040Z,15.07
2023-04-16T08:47:58.739Z,15.06
2023-04-16T08:53:07.044Z,14.75
2023-04-16T08:58:14.614Z,14.03
2023-04-16T09:03:20.606Z,14.47
2023-04-16T09:08:24.453Z,14.70
2023-04-16T09:13:27.264Z,14.63
2023-04-16T09:18:31.254Z,14.57
2023-04-16T09:23:33.525Z,14.85
2023-04-16T09:28:54.036Z,14.92
2023-04-16T09:34:06.691Z,14.85
2023-04-16T09:39:20.071Z,14.52
2023-04-16T09:44:36.594Z,14.66
2023-04-16T09:49:42.961Z,14.62
2023-04-16T09:54:51.535Z,14.74
2023-04-16T09:59:58.645Z,14.11
2023-04-16T10:05:04.646Z,14.58
2023-04-16T10:10:09.570Z,14.37
2023-04-16T10:15:12.349Z,14.67
2023-04-16T10:20:17.310Z,14.78
2023-04-16T10:25:20.311Z,14.76
2023-04-16T10:30:23.952Z,14.47
2023-04-16T10:35:27.001Z,14.26
2023-04-16T10:40:29.903Z,14.43
2023-04-16T10:45:38.994Z,14.58
2023-04-16T10:50:41.623Z,14.47
2023-04-16T10:56:06.419Z,13.86
2023-04-16T11:01:13.796Z,14.37
2023-04-16T11:06:19.084Z,14.25
2023-04-16T11:11:23.074Z,14.37
2023-04-16T11:16:26.728Z,13.74
2023-04-16T11:21:29.487Z,14.11
2023-04-16T11:26:33.043Z,14.27
2023-04-16T11:31:36.017Z,14.17
2023-04-16T11:36:51.458Z,13.47
2023-04-16T11:41:54.256Z,14.14
2023-04-16T11:46:58.003Z,14.17
2023-04-16T11:52:01.064Z,14.01
2023-04-16T11:57:05.210Z,14.16
2023-04-16T12:02:09.156Z,13.73
2023-04-16T12:07:13.544Z,14.22
2023-04-16T12:12:27.798Z,13.37
2023-04-16T12:17:33.088Z,14.15
2023-04-16T12:22:38.611Z,13.45
2023-04-16T12:27:54.189Z,13.86
2023-04-16T12:33:17.499Z,14.30
2023-04-16T12:38:22.796Z,14.25
2023-04-16T12:43:26.840Z,13.84
2023-04-16T12:48:29.363Z,13.83
2023-04-16T12:53:33.616Z,13.75
2023-04-16T12:58:36.713Z,14.33
2023-04-16T13:03:39.235Z,14.27
2023-04-16T13:08:43.457Z,13.73
2023-04-16T13:13:46.527Z,14.26
2023-04-16T13:18:49.967Z,13.35
2023-04-16T13:23:52.565Z,13.78
2023-04-16T13:28:55.227Z,14.17
2023-04-16T13:33:57.912Z,14.07
2023-04-16T13:39:01.066Z,14.05
2023-04-16T13:44:03.922Z,13.22
2023-04-16T13:49:07.357Z,13.16
2023-04-16T13:54:09.858Z,13.24
2023-04-16T13:59:12.549Z,13.75
2023-04-16T14:04:15.690Z,13.61
2023-04-16T14:09:19.636Z,13.69
2023-04-16T14:14:23.435Z,13.69
2023-04-16T14:19:26.880Z,13.67
2023-04-16T14:24:31.537Z,13.65
2023-04-16T14:29:34.443Z,13.49
2023-04-16T14:34:37.639Z,12.63
2023-04-16T14:39:40.559Z,12.55
2023-04-16T14:44:44.828Z,12.69
2023-04-16T14:49:47.898Z,12.40
2023-04-16T14:54:51.403Z,12.59
2023-04-16T14:59:53.921Z,12.67
2023-04-16T15:04:56.686Z,12.18
2023-04-16T15:09:59.491Z,12.92
2023-04-16T15:15:02.147Z,12.06
2023-04-16T15:20:09.483Z,12.16
2023-04-16T15:25:11.984Z,12.59
2023-04-16T15:30:17.027Z,12.33
2023-04-16T15:35:20.286Z,12.04
2023-04-16T15:40:24.636Z,11.92
2023-04-16T15:45:30.092Z,11.71
2023-04-16T15:50:33.490Z,11.65
2023-04-16T15:55:36.769Z,11.93
2023-04-16T16:00:39.638Z,11.09
2023-04-16T16:05:42.450Z,11.23
2023-04-16T16:10:55.163Z,11.32
2023-04-16T16:15:58.578Z,11.00
2023-04-16T16:21:01.725Z,11.65
2023-04-16T16:26:06.525Z,11.45
2023-04-16T16:31:09.541Z,11.34
2023-04-16T16:36:12.657Z,11.19
2023-04-16T16:41:15.226Z,10.86
2023-04-16T16:46:17.891Z,10.93
2023-04-16T16:51:20.356Z,10.15
2023-04-16T16:56:23.783Z,11.04
2023-04-16T17:01:26.562Z,10.88
2023-04-16T17:06:29.814Z,10.69
2023-04-16T17:11:32.188Z,10.53
2023-04-16T17:16:34.697Z,10.54
2023-04-16T17:21:37.293Z,10.44
2023-04-16T17:26:41.284Z,10.24
2023-04-16T17:31:43.633Z,10.47
2023-04-16T17:36:47.430Z,10.35
2023-04-16T17:41:54.521Z,10.15
2023-04-16T17:46:57.499Z,9.94
2023-04-16T17:52:00.887Z,10.04
2023-04-16T17:57:03.347Z,9.91
2023-04-16T18:02:06.346Z,9.83
2023-04-16T18:07:08.824Z,9.88
2023-04-16T18:12:12.017Z,9.86
2023-04-16T18:17:14.429Z,9.74
2023-04-16T18:22:16.956Z,9.64
2023-04-16T18:27:21.697Z,9.47
2023-04-16T18:32:24.244Z,9.34
2023-04-16T18:37:26.745Z,9.25
2023-04-16T18:42:29.544Z,9.22
2023-04-16T18:47:32.009Z,9.07
2023-04-16T18:52:34.412Z,8.86
2023-04-16T18:57:37.148Z,8.78
2023-04-16T19:02:40.256Z,8.65
2023-04-16T19:07:42.704Z,8.64
2023-04-16T19:12:45.805Z,8.62
2023-04-16T19:17:48.235Z,8.64
2023-04-16T19:22:51.048Z,8.56
2023-04-16T19:27:53.466Z,8.47
2023-04-16T19:32:55.960Z,8.30
2023-04-16T19:38:00.187Z,8.29
2023-04-16T19:43:04.226Z,8.04
2023-04-16T19:48:07.185Z,8.08
2023-04-16T19:53:10.845Z,8.01
2023-04-16T19:58:14.706Z,8.10
2023-04-16T20:03:17.739Z,7.91
2023-04-16T20:08:21.119Z,7.58
2023-04-16T20:13:26.368Z,7.60
2023-04-16T20:18:29.017Z,7.62
2023-04-16T20:23:33.152Z,7.59
2023-04-16T20:28:36.641Z,7.53
2023-04-16T20:33:42.345Z,7.41
2023-04-16T20:38:45.273Z,7.59
2023-04-16T20:43:51.011Z,7.37
2023-04-16T20:48:53.703Z,7.39
2023-04-16T20:53:56.121Z,7.25
2023-04-16T20:58:59.562Z,7.31
2023-04-16T21:04:02.409Z,7.24
2023-04-16T21:09:06.774Z,7.04
2023-04-16T21:14:10.707Z,6.96
2023-04-16T21:19:13.154Z,6.94
2023-04-16T21:24:16.091Z,6.79
2023-04-16T21:29:18.563Z,6.74
2023-04-16T21:34:20.940Z,6.90
2023-04-16T21:39:24.708Z,6.96
2023-04-16T21:44:28.440Z,6.72
2023-04-16T21:49:30.727Z,6.73
2023-04-16T21:54:32.983Z,6.88
2023-04-16T21:59:35.385Z,6.63
2023-04-16T22:04:39.010Z,6.82
2023-04-16T22:09:42.060Z,6.57
2023-04-16T22:14:59.563Z,6.58
2023-04-16T22:20:15.056Z,6.56
2023-04-16T22:25:17.346Z,6.48
2023-04-16T22:30:20.879Z,6.41
2023-04-16T22:35:24.274Z,6.58
2023-04-16T22:40:27.736Z,6.62
2023-04-16T22:45:30.659Z,6.56
2023-04-16T22:50:33.514Z,6.37
2023-04-16T22:55:36.863Z,6.47
2023-04-16T23:00:39.514Z,6.36
2023-04-16T23:05:42.437Z,6.31
2023-04-16T23:10:44.785Z,6.20
2023-04-16T23:15:47.585Z,6.18
2023-04-16T23:20:53.998Z,6.36
2023-04-16T23:25:56.264Z,6.24
2023-04-16T23:30:58.664Z,6.17
2023-04-16T23:36:01.060Z,6.05
2023-04-16T23:41:03.538Z,5.99
2023-04-16T23:46:06.261Z,6.15
2023-04-16T23:51:09.143Z,5.96
2023-04-16T23:56:12.056Z,5.67
